Home   Weather   Germany   Lennestadt   Past weeks
Flag for Germany

Past Weather in Lennestadt, North Rhine-Westphalia, Germany — Yesterday and Last 2 Weeks

Currently: 28 °F. Clear. (Weather station: Dortmund / Wickede, Germany). See more current weather

Past Weather in Lennestadt — Graph

°F

Lennestadt Temperature Yesterday

Maximum temperature yesterday: 41 °F (at 3:20 pm)
Minimum temperature yesterday: 28 °F (at 11:20 pm)
Average temperature yesterday: 35 °F

High & Low Weather Summary for the Past Weeks

 TemperatureHumidityPressure
High66 °F (Feb 21, 3:20 pm)100% (Feb 26, 3:20 am)30.72 "Hg (Feb 26, 3:20 am)
Low28 °F (Mar 5, 11:20 pm)27% (Mar 2, 3:20 pm)29.83 "Hg (Feb 18, 11:20 pm)
Average48 °F70%30.31 "Hg
* Reported Feb 18 11:20 pm — Mar 5 11:50 pm, Lennestadt. Weather by CustomWeather, © 2021

Note: Actual official high and low records may vary slightly from our data, if they occured in-between our weather recording intervals... More about our weather records

Lennestadt Weather History for the Previous 24 Hours

Scroll right to see more
 ConditionsComfort  
Time TempWeatherWind HumidityBarometerVisibility
11:50 pm
Fri, Mar 5
28 °FClear.7 mph80%30.51 "HgN/A
11:20 pm28 °FClear.7 mph80%30.48 "HgN/A
10:50 pm30 °FClear.7 mph75%30.48 "HgN/A
10:20 pm30 °FClear.7 mph75%30.48 "Hg10 mi
9:50 pm32 °FClear.2 mph69%30.48 "Hg10 mi
9:20 pm34 °FClear.2 mph60%30.48 "Hg10 mi
8:50 pm36 °FClear.2 mph56%30.45 "Hg10 mi
8:20 pm36 °FClear.1 mph56%30.45 "Hg10 mi
7:50 pm36 °FClear.3 mph56%30.45 "Hg10 mi
7:20 pm37 °FClear.2 mph45%30.45 "Hg10 mi
6:50 pm37 °FClear.2 mph48%30.42 "Hg10 mi
6:20 pm37 °FClear.5 mph45%30.42 "Hg10 mi
5:50 pm39 °FPassing clouds.6 mph45%30.42 "HgN/A
5:20 pm41 °FPassing clouds.6 mph42%30.39 "HgN/A
4:50 pm41 °FPassing clouds.7 mph39%30.39 "HgN/A
4:20 pm41 °FPassing clouds.8 mph45%30.39 "HgN/A
3:50 pm41 °FPassing clouds.7 mph45%30.39 "HgN/A
3:20 pm41 °FPassing clouds.9 mph45%30.39 "HgN/A
2:50 pm39 °FScattered clouds.10 mph48%30.39 "HgN/A
2:20 pm39 °FScattered clouds.9 mph52%30.36 "HgN/A
1:50 pm39 °FPassing clouds.8 mph56%30.39 "HgN/A
1:20 pm39 °FPassing clouds.9 mph52%30.36 "HgN/A
12:50 pm37 °FScattered clouds.12 mph60%30.36 "HgN/A
12:20 pm37 °FPassing clouds.7 mph60%30.36 "HgN/A
11:50 am36 °FScattered clouds.8 mph70%30.36 "HgN/A
11:20 am36 °FBroken clouds.7 mph75%30.36 "HgN/A
10:50 am34 °FBroken clouds.6 mph75%30.33 "HgN/A
10:20 am32 °FBroken clouds.5 mph80%30.33 "HgN/A
9:50 am32 °FBroken clouds.6 mph80%30.33 "HgN/A
9:20 am30 °FPartly sunny.8 mph86%30.33 "HgN/A
8:50 am30 °FScattered clouds.7 mph86%30.30 "HgN/A
8:20 am30 °FPassing clouds.8 mph86%30.30 "HgN/A
7:50 am30 °FPassing clouds.7 mph86%30.27 "HgN/A
7:20 am30 °FPassing clouds.6 mph86%30.24 "HgN/A
6:50 am32 °FPassing clouds.5 mph80%30.24 "HgN/A
6:20 am32 °FPassing clouds.6 mph80%30.24 "HgN/A
5:50 am34 °FPassing clouds.7 mph75%30.24 "HgN/A
5:20 am36 °FMostly cloudy.13 mph81%30.21 "HgN/A
4:50 am36 °FMostly cloudy.8 mph87%30.21 "HgN/A
4:20 am36 °FOvercast.10 mph87%30.18 "HgN/A
3:50 am36 °FOvercast.9 mph87%30.18 "HgN/A
3:20 am37 °FLow clouds.9 mph87%30.18 "HgN/A
2:50 am37 °FLow clouds.8 mph87%30.15 "HgN/A
2:20 am36 °FLow clouds.5 mph93%30.15 "HgN/A
1:50 am36 °FMostly cloudy.6 mph93%30.15 "HgN/A
1:20 am36 °FOvercast.3 mph93%30.15 "HgN/A
Weather by CustomWeather, © 2021

See weather overview